Time;durP1;ratioP1;P1;durP2;ratioP2;P2;SDS_P1;SDS_P2;PMS_P1;PMS_P2;Temp;Humidity;BMP_temperature;BMP_pressure;BME280_temperature;BME280_humidity;BME280_pressure;Samples;Min_cycle;Max_cycle;Signal;HPM_P1;HPM_P2
2021/04/02 00:01:01;;;;;;;25.65;17.37;;;;;;;14.08;55.84;98803.98;1695698;83;21618;-63
2021/04/02 00:03:33;;;;;;;23.47;18.40;;;;;;;14.09;56.06;98808.30;1688142;84;21164;-64
2021/04/02 00:06:02;;;;;;;23.18;17.42;;;;;;;14.11;56.25;98803.93;1694853;83;21157;-66
2021/04/02 00:08:30;;;;;;;25.48;18.73;;;;;;;14.10;56.78;98805.83;1660668;85;21389;-65
2021/04/02 00:11:03;;;;;;;26.42;18.00;;;;;;;14.08;57.49;98799.13;1668159;84;21169;-62
2021/04/02 00:13:37;;;;;;;26.12;18.25;;;;;;;14.05;58.86;98786.20;1696651;84;21217;-64
2021/04/02 00:16:06;;;;;;;22.15;15.98;;;;;;;13.95;59.43;98785.81;1699401;83;21668;-64
2021/04/02 00:18:34;;;;;;;29.02;17.10;;;;;;;13.88;59.97;98787.52;1710704;83;21619;-64
2021/04/02 00:21:06;;;;;;;29.25;18.55;;;;;;;13.86;60.08;98783.52;1726644;83;22102;-64
2021/04/02 00:23:35;;;;;;;27.20;17.98;;;;;;;13.82;60.03;98779.77;1726339;83;21172;-64
2021/04/02 00:26:12;;;;;;;25.00;18.40;;;;;;;13.81;60.11;98785.72;1708065;83;21169;-65
2021/04/02 00:28:40;;;;;;;27.73;19.32;;;;;;;13.80;60.13;98770.62;1725276;83;21113;-66
2021/04/02 00:31:08;;;;;;;26.42;18.70;;;;;;;13.79;60.13;98772.27;1692611;83;21620;-64
2021/04/02 00:33:36;;;;;;;29.18;18.52;;;;;;;13.74;60.16;98773.14;1724625;83;21443;-65
2021/04/02 00:36:05;;;;;;;29.27;19.00;;;;;;;13.69;60.13;98762.41;1719237;83;21590;-66
2021/04/02 00:38:33;;;;;;;24.90;16.73;;;;;;;13.63;60.26;98756.00;1710659;83;21575;-62
2021/04/02 00:41:05;;;;;;;22.52;16.25;;;;;;;13.59;60.24;98741.48;1725610;83;21141;-65
2021/04/02 00:43:42;;;;;;;28.23;16.60;;;;;;;13.55;60.25;98730.46;1725711;83;21149;-65
2021/04/02 00:46:10;;;;;;;23.60;15.23;;;;;;;13.51;60.13;98722.15;1725823;83;21367;-67
2021/04/02 00:48:42;;;;;;;24.50;15.20;;;;;;;13.42;60.44;98720.39;1723631;83;21022;-66
2021/04/02 00:51:20;;;;;;;41.75;21.85;;;;;;;13.36;60.42;98718.31;1716271;83;21566;-65
2021/04/02 00:53:52;;;;;;;26.33;18.80;;;;;;;13.30;60.53;98711.36;1693629;83;21352;-66
2021/04/02 00:56:20;;;;;;;22.50;17.87;;;;;;;13.28;60.64;98704.13;1725268;82;21622;-65
2021/04/02 00:58:48;;;;;;;22.13;15.63;;;;;;;13.21;61.28;98702.31;1665031;83;21206;-66
2021/04/02 01:01:16;;;;;;;25.50;17.17;;;;;;;13.13;61.41;98698.12;1711175;83;21160;-65
2021/04/02 01:03:45;;;;;;;24.15;16.40;;;;;;;13.05;61.66;98694.12;1671137;84;22291;-65
2021/04/02 01:06:20;;;;;;;28.27;19.67;;;;;;;13.01;61.85;98691.20;1705249;83;21126;-65
2021/04/02 01:08:48;;;;;;;24.87;18.65;;;;;;;12.94;62.23;98689.97;1725590;83;21195;-66
2021/04/02 01:11:19;;;;;;;21.40;15.40;;;;;;;12.92;62.04;98680.80;1725627;83;21652;-67
2021/04/02 01:13:50;;;;;;;22.85;17.10;;;;;;;12.93;62.05;98675.66;1710341;83;21623;-66
2021/04/02 01:16:21;;;;;;;22.00;16.40;;;;;;;12.92;62.08;98682.15;1713512;83;21572;-66
2021/04/02 01:19:07;;;;;;;24.82;17.80;;;;;;;12.86;62.31;98677.91;1741630;81;21165;-65
2021/04/02 01:21:51;;;;;;;32.28;20.90;;;;;;;12.84;62.31;98671.20;1740148;82;21149;-65
2021/04/02 01:24:30;;;;;;;29.32;21.00;;;;;;;12.81;62.47;98677.16;1740362;82;21384;-65
2021/04/02 01:27:23;;;;;;;28.98;21.60;;;;;;;12.80;62.62;98679.62;1733265;82;21149;-61
2021/04/02 01:30:00;;;;;;;30.48;22.05;;;;;;;12.78;62.66;98668.30;1748996;81;21014;-63
2021/04/02 01:32:33;;;;;;;31.93;23.05;;;;;;;12.77;62.61;98662.09;1767129;80;21152;-63
2021/04/02 01:35:24;;;;;;;38.42;23.12;;;;;;;12.74;62.63;98656.48;1721552;82;21121;-63
2021/04/02 01:37:59;;;;;;;37.80;24.55;;;;;;;12.72;62.79;98657.31;1741632;81;21014;-62
2021/04/02 01:40:29;;;;;;;30.20;20.95;;;;;;;12.70;62.71;98650.88;1740217;81;21038;-62
2021/04/02 01:43:00;;;;;;;27.75;19.90;;;;;;;12.68;62.58;98645.75;1720346;82;21184;-64
2021/04/02 01:45:29;;;;;;;24.32;19.42;;;;;;;12.65;62.54;98642.30;1740102;82;21145;-62
2021/04/02 01:47:57;;;;;;;29.48;19.85;;;;;;;12.66;62.54;98650.63;1741953;81;21245;-61
2021/04/02 01:50:25;;;;;;;29.45;21.37;;;;;;;12.64;62.66;98647.43;1751485;81;21200;-61
2021/04/02 01:52:53;;;;;;;24.10;18.40;;;;;;;12.60;62.53;98659.89;1745543;81;21176;-63
2021/04/02 01:55:22;;;;;;;20.40;15.85;;;;;;;12.59;62.57;98658.28;1743706;82;21042;-62
2021/04/02 01:57:51;;;;;;;28.10;20.77;;;;;;;12.56;62.56;98675.05;1724800;81;21669;-62
2021/04/02 02:00:25;;;;;;;28.80;19.05;;;;;;;12.55;62.47;98665.89;1749433;81;21559;-62
2021/04/02 02:02:56;;;;;;;19.67;15.40;;;;;;;12.53;62.40;98669.41;1740528;82;21567;-62
2021/04/02 02:05:23;;;;;;;29.05;19.98;;;;;;;12.51;62.44;98657.58;1740354;82;21158;-61
2021/04/02 02:07:55;;;;;;;33.65;20.15;;;;;;;12.46;62.47;98665.72;1740199;82;21204;-62
2021/04/02 02:10:23;;;;;;;29.85;19.87;;;;;;;12.45;62.57;98667.34;1721250;82;21534;-63
2021/04/02 02:12:52;;;;;;;21.02;16.60;;;;;;;12.42;62.63;98657.92;1721574;82;21168;-64
2021/04/02 02:15:21;;;;;;;26.35;18.57;;;;;;;12.39;62.82;98649.07;1720604;82;21204;-64
2021/04/02 02:17:56;;;;;;;26.68;19.05;;;;;;;12.37;62.97;98657.20;1743542;82;21116;-62
2021/04/02 02:20:29;;;;;;;29.32;18.32;;;;;;;12.34;63.07;98662.60;1749880;80;21583;-62
2021/04/02 02:22:59;;;;;;;24.00;18.80;;;;;;;12.33;63.22;98654.80;1750580;80;21591;-62
2021/04/02 02:25:29;;;;;;;28.12;18.70;;;;;;;12.29;63.33;98646.48;1750633;82;21554;-67
2021/04/02 02:28:02;;;;;;;26.55;18.23;;;;;;;12.29;63.38;98655.11;1748224;82;21574;-62
2021/04/02 02:30:31;;;;;;;27.77;19.17;;;;;;;12.28;63.49;98661.05;1748384;82;21188;-61
2021/04/02 02:33:18;;;;;;;23.45;18.27;;;;;;;12.33;63.54;98656.95;1828499;76;22901;-62
2021/04/02 02:35:48;;;;;;;28.23;19.05;;;;;;;12.28;63.57;98656.23;1786575;79;20990;-61
2021/04/02 02:38:16;;;;;;;20.77;17.17;;;;;;;12.27;63.63;98650.02;1785044;80;22320;-62
2021/04/02 02:40:44;;;;;;;30.27;20.92;;;;;;;12.25;63.66;98645.45;1787035;79;21350;-62
2021/04/02 02:43:13;;;;;;;32.23;20.70;;;;;;;12.26;63.76;98640.87;1754845;80;21622;-61
2021/04/02 02:45:43;;;;;;;28.90;20.27;;;;;;;12.24;63.82;98621.73;1732407;80;21049;-61
2021/04/02 02:48:12;;;;;;;25.70;20.02;;;;;;;12.23;63.76;98624.16;1762336;80;21061;-61
2021/04/02 02:50:47;;;;;;;27.95;19.20;;;;;;;12.21;63.76;98630.41;1732351;81;21400;-62
2021/04/02 02:53:18;;;;;;;23.45;16.75;;;;;;;12.19;63.78;98639.84;1755049;81;21017;-61
2021/04/02 02:55:46;;;;;;;23.80;17.32;;;;;;;12.18;63.82;98647.13;1784775;80;20967;-63
2021/04/02 02:58:18;;;;;;;29.45;19.35;;;;;;;12.15;63.82;98636.93;1784768;80;21172;-62
2021/04/02 03:00:46;;;;;;;23.95;18.27;;;;;;;12.14;63.84;98632.62;1780010;80;21110;-61
2021/04/02 03:03:16;;;;;;;21.97;15.48;;;;;;;12.13;63.83;98636.97;1716447;80;22318;-61
2021/04/02 03:05:48;;;;;;;24.32;17.48;;;;;;;12.14;63.85;98633.97;1774093;80;21026;-62
2021/04/02 03:08:19;;;;;;;23.92;16.85;;;;;;;12.15;63.84;98644.20;1776599;80;21555;-62
2021/04/02 03:10:47;;;;;;;22.90;17.10;;;;;;;12.13;63.85;98640.44;1741616;81;21113;-61
2021/04/02 03:13:20;;;;;;;28.00;18.25;;;;;;;12.11;63.85;98648.02;1726973;81;21136;-62
2021/04/02 03:15:48;;;;;;;26.10;19.03;;;;;;;12.12;63.81;98653.68;1754130;81;22234;-62
2021/04/02 03:18:19;;;;;;;18.95;15.00;;;;;;;12.13;63.80;98658.53;1755822;80;21674;-62
2021/04/02 03:20:49;;;;;;;24.63;16.60;;;;;;;12.12;63.81;98652.34;1750869;80;21145;-63
2021/04/02 03:23:18;;;;;;;27.15;18.67;;;;;;;12.12;63.79;98651.53;1754111;80;21180;-63
2021/04/02 03:25:50;;;;;;;26.42;17.90;;;;;;;12.11;63.81;98661.50;1753954;81;21544;-64
2021/04/02 03:28:18;;;;;;;22.77;17.35;;;;;;;12.11;63.88;98668.23;1760397;80;21363;-64
2021/04/02 03:30:49;;;;;;;22.50;15.72;;;;;;;12.12;64.03;98674.44;1784752;80;21018;-65
2021/04/02 03:33:26;;;;;;;26.50;19.20;;;;;;;12.11;64.05;98672.28;1784881;80;21097;-64
2021/04/02 03:36:04;;;;;;;29.77;19.57;;;;;;;12.09;64.00;98667.70;1778130;80;21599;-64
2021/04/02 03:38:36;;;;;;;20.70;15.30;;;;;;;12.11;63.96;98662.05;1726627;81;21169;-65
2021/04/02 03:41:27;;;;;;;19.87;14.15;;;;;;;12.10;63.96;98649.65;1754607;80;21430;-64
2021/04/02 03:43:57;;;;;;;23.80;16.07;;;;;;;12.07;64.00;98648.88;1763600;80;21149;-63
2021/04/02 03:46:26;;;;;;;25.97;16.95;;;;;;;12.03;64.08;98647.31;1748199;80;21113;-63
2021/04/02 03:48:57;;;;;;;25.05;17.48;;;;;;;12.01;64.18;98645.43;1784871;80;21644;-64
2021/04/02 03:51:27;;;;;;;28.47;17.37;;;;;;;12.02;64.23;98639.50;1750440;80;21150;-66
2021/04/02 03:54:03;;;;;;;26.15;18.27;;;;;;;12.01;64.37;98633.84;1753385;80;22417;-65
2021/04/02 03:56:34;;;;;;;24.45;18.05;;;;;;;12.00;64.51;98645.16;1753323;80;21047;-63
2021/04/02 03:59:03;;;;;;;25.77;18.73;;;;;;;12.02;64.39;98646.23;1753356;81;21650;-64
2021/04/02 04:01:37;;;;;;;24.37;16.80;;;;;;;12.04;64.25;98646.20;1753719;80;21109;-63
2021/04/02 04:04:06;;;;;;;;;;;;;;;12.06;64.18;98642.69;1784314;80;21524;-66
2021/04/02 04:06:36;;;;;;;26.80;18.17;;;;;;;12.05;64.37;98641.61;1780725;80;21467;-64
2021/04/02 04:09:15;;;;;;;25.65;17.32;;;;;;;12.01;64.61;98640.04;1783002;80;21172;-66
2021/04/02 04:11:45;;;;;;;26.17;17.48;;;;;;;12.02;64.43;98640.84;1753009;81;21174;-65
2021/04/02 04:14:16;;;;;;;26.27;18.07;;;;;;;12.04;64.44;98633.27;1747514;80;21144;-64
2021/04/02 04:16:48;;;;;;;29.80;18.23;;;;;;;12.04;64.40;98630.57;1782312;80;22211;-63
2021/04/02 04:19:17;;;;;;;38.13;19.57;;;;;;;12.02;64.61;98619.29;1784049;80;21551;-64
2021/04/02 04:21:46;;;;;;;25.27;18.75;;;;;;;12.04;64.65;98615.20;1784101;80;20987;-64
2021/04/02 04:24:17;;;;;;;29.00;19.48;;;;;;;12.07;64.61;98623.28;1726566;81;21115;-65
2021/04/02 04:26:47;;;;;;;29.82;20.80;;;;;;;12.08;64.85;98620.84;1772335;80;21157;-64
2021/04/02 04:29:20;;;;;;;29.48;17.87;;;;;;;12.09;64.82;98607.61;1778741;80;21137;-64
2021/04/02 04:31:48;;;;;;;26.12;18.20;;;;;;;12.12;64.75;98598.97;1753497;81;21426;-63
2021/04/02 04:34:16;;;;;;;26.27;19.17;;;;;;;12.10;64.79;98596.55;1726031;81;20994;-65
2021/04/02 04:36:44;;;;;;;27.95;18.90;;;;;;;12.10;64.93;98593.05;1753300;81;21093;-64
2021/04/02 04:39:12;;;;;;;26.10;19.42;;;;;;;12.05;65.13;98594.45;1753252;81;21192;-63
2021/04/02 04:41:40;;;;;;;30.75;18.73;;;;;;;12.00;65.27;98597.20;1755083;80;21156;-64
2021/04/02 04:44:08;;;;;;;37.23;21.17;;;;;;;11.96;65.41;98606.41;1784252;80;21193;-62
2021/04/02 04:46:35;;;;;;;27.30;20.20;;;;;;;11.98;65.02;98610.17;1760298;80;21242;-64
2021/04/02 04:49:03;;;;;;;28.65;19.60;;;;;;;12.01;64.61;98609.05;1778410;80;21177;-64
2021/04/02 04:51:33;;;;;;;48.78;22.25;;;;;;;12.03;64.40;98614.16;1784295;80;21125;-64
2021/04/02 04:54:01;;;;;;;35.90;23.50;;;;;;;12.05;64.23;98600.65;1784230;79;21034;-63
2021/04/02 04:56:31;;;;;;;35.50;23.15;;;;;;;12.04;64.18;98595.00;1784331;80;22204;-64
2021/04/02 04:59:03;;;;;;;38.92;24.90;;;;;;;12.01;64.13;98586.14;1756380;80;21543;-64
2021/04/02 05:01:40;;;;;;;;;;;;;;;11.97;64.04;98575.69;1787085;80;21113;-64
2021/04/02 05:04:08;;;;;;;32.30;22.37;;;;;;;11.98;63.85;98577.30;1783358;80;20223;-64
2021/04/02 05:06:36;;;;;;;35.28;21.55;;;;;;;11.96;63.61;98575.95;1777124;80;21571;-63
2021/04/02 05:09:05;;;;;;;47.90;24.30;;;;;;;11.93;63.56;98589.47;1720079;82;21156;-63
2021/04/02 05:11:37;;;;;;;43.13;25.80;;;;;;;11.92;63.56;98596.48;1731737;82;21077;-63
2021/04/02 05:14:07;;;;;;;38.00;22.07;;;;;;;11.93;63.20;98592.70;1784274;80;21129;-64
2021/04/02 05:16:35;;;;;;;33.02;20.90;;;;;;;11.94;63.07;98587.59;1784318;80;21129;-63
2021/04/02 05:19:04;;;;;;;32.60;21.97;;;;;;;11.96;62.82;98590.78;1784241;80;21149;-63
2021/04/02 05:21:32;;;;;;;33.75;23.32;;;;;;;11.95;62.73;98588.63;1778386;80;22209;-62
2021/04/02 05:24:00;;;;;;;30.97;22.52;;;;;;;11.92;62.67;98591.09;1753307;80;21630;-63
2021/04/02 05:26:28;;;;;;;37.50;24.72;;;;;;;11.94;62.62;98601.06;1779515;80;21572;-63
2021/04/02 05:28:56;;;;;;;30.08;22.07;;;;;;;11.95;62.52;98604.80;1784298;80;21567;-64
2021/04/02 05:31:24;;;;;;;26.95;20.25;;;;;;;11.99;62.44;98611.78;1784293;80;21153;-63
2021/04/02 05:33:54;;;;;;;33.00;22.02;;;;;;;12.02;62.26;98617.94;1776084;80;21211;-63
2021/04/02 05:36:23;;;;;;;33.20;22.95;;;;;;;12.01;62.20;98620.37;1779766;80;21138;-64
2021/04/02 05:38:50;;;;;;;39.03;22.82;;;;;;;11.97;62.40;98622.84;1779920;80;21762;-63
2021/04/02 05:41:24;;;;;;;31.62;21.20;;;;;;;11.95;62.61;98632.28;1779389;80;21661;-64
2021/04/02 05:43:56;;;;;;;30.60;21.33;;;;;;;11.91;62.85;98631.25;1748122;82;21527;-63
2021/04/02 05:46:25;;;;;;;32.65;20.02;;;;;;;11.89;63.09;98636.13;1767669;80;21256;-64
2021/04/02 05:49:05;;;;;;;30.92;19.73;;;;;;;11.86;63.26;98632.64;1780960;80;21030;-64
2021/04/02 05:51:33;;;;;;;28.60;19.37;;;;;;;11.84;63.53;98624.05;1762605;79;21133;-63
2021/04/02 05:54:01;;;;;;;25.00;18.85;;;;;;;11.78;63.79;98623.30;1757415;80;21171;-65
2021/04/02 05:56:29;;;;;;;28.20;16.70;;;;;;;11.75;63.98;98637.31;1721618;82;21131;-63
2021/04/02 05:58:56;;;;;;;29.42;18.12;;;;;;;11.74;64.22;98645.96;1779823;80;21401;-64
2021/04/02 06:01:24;;;;;;;26.70;18.50;;;;;;;11.73;64.49;98643.00;1779826;80;21185;-63
2021/04/02 06:03:54;;;;;;;28.90;18.77;;;;;;;11.70;64.84;98638.70;1745202;80;21552;-63
2021/04/02 06:06:22;;;;;;;25.23;18.92;;;;;;;11.69;66.48;98623.08;1778263;80;21607;-64
2021/04/02 06:08:50;;;;;;;30.85;21.33;;;;;;;11.67;67.42;98623.89;1779895;80;21157;-64
2021/04/02 06:11:20;;;;;;;24.18;19.85;;;;;;;11.63;68.55;98625.55;1776590;80;21201;-65
2021/04/02 06:13:49;;;;;;;26.02;20.55;;;;;;;11.57;70.80;98619.94;1759006;80;21170;-64
2021/04/02 06:16:16;;;;;;;25.50;18.70;;;;;;;11.48;71.60;98609.52;1753099;80;21579;-64
2021/04/02 06:18:44;;;;;;;31.37;19.65;;;;;;;11.43;72.42;98610.09;1748772;81;21121;-63
2021/04/02 06:21:12;;;;;;;24.80;18.32;;;;;;;11.38;73.90;98618.47;1701634;84;21687;-65
2021/04/02 06:23:40;;;;;;;23.65;17.87;;;;;;;11.34;74.66;98602.62;1694605;82;21221;-65
2021/04/02 06:26:13;;;;;;;28.35;19.82;;;;;;;11.33;76.40;98592.94;1732886;81;21014;-65
2021/04/02 06:28:42;;;;;;;29.55;23.27;;;;;;;11.24;77.09;98573.09;1730964;82;21148;-65
2021/04/02 06:31:15;;;;;;;31.10;21.85;;;;;;;11.18;78.03;98566.67;1734010;81;21621;-65
2021/04/02 06:33:52;;;;;;;31.37;20.20;;;;;;;11.16;78.34;98558.91;1764777;81;21116;-65
2021/04/02 06:36:28;;;;;;;29.65;21.65;;;;;;;11.20;78.96;98555.91;1766522;81;21219;-66
2021/04/02 06:38:58;;;;;;;32.28;23.07;;;;;;;11.21;79.23;98560.75;1766302;81;21134;-66
2021/04/02 06:41:27;;;;;;;32.38;24.20;;;;;;;11.21;79.55;98559.41;1740829;81;21128;-64
2021/04/02 06:44:01;;;;;;;40.98;26.30;;;;;;;11.25;79.83;98563.14;1745094;81;21201;-64
2021/04/02 06:46:37;;;;;;;36.87;26.93;;;;;;;11.25;80.05;98552.37;1766778;81;21128;-65
2021/04/02 06:49:11;;;;;;;39.35;26.90;;;;;;;11.18;80.34;98562.10;1766394;81;21862;-64
2021/04/02 06:51:43;;;;;;;42.50;31.57;;;;;;;11.10;80.55;98552.48;1766289;81;21179;-64
2021/04/02 06:54:14;;;;;;;47.75;33.78;;;;;;;11.05;81.18;98559.25;1752134;81;21168;-66
2021/04/02 06:56:58;;;;;;;38.53;29.82;;;;;;;11.03;81.94;98566.25;1736053;82;21605;-65
2021/04/02 06:59:26;;;;;;;40.15;26.62;;;;;;;11.06;84.30;98566.25;1736172;81;21430;-64
2021/04/02 07:01:55;;;;;;;32.65;24.32;;;;;;;11.09;84.86;98565.13;1736009;82;21201;-65
2021/04/02 07:04:24;;;;;;;39.90;23.65;;;;;;;11.11;86.66;98567.02;1742175;81;21256;-63
2021/04/02 07:06:53;;;;;;;30.90;22.95;;;;;;;11.11;86.68;98575.09;1740737;81;21569;-66
2021/04/02 07:09:22;;;;;;;25.12;20.20;;;;;;;11.19;86.90;98589.28;1765053;81;21095;-65
2021/04/02 07:11:57;;;;;;;29.45;20.75;;;;;;;11.20;87.27;98609.73;1759211;80;21141;-64
2021/04/02 07:14:27;;;;;;;27.22;20.37;;;;;;;11.18;87.40;98629.37;1757143;81;21042;-65
2021/04/02 07:16:57;;;;;;;29.48;21.57;;;;;;;11.15;87.74;98629.14;1758692;80;21117;-67
2021/04/02 07:19:26;;;;;;;28.92;21.80;;;;;;;11.09;88.61;98642.36;1703670;82;24017;-65
2021/04/02 07:21:55;;;;;;;24.95;22.13;;;;;;;11.06;89.11;98645.08;1744696;82;21155;-67
2021/04/02 07:24:23;;;;;;;24.23;19.62;;;;;;;11.07;89.20;98652.61;1744834;82;21170;-66
2021/04/02 07:26:51;;;;;;;25.52;20.08;;;;;;;11.04;89.40;98659.87;1742881;82;21209;-65
2021/04/02 07:29:22;;;;;;;29.90;22.05;;;;;;;11.00;89.46;98661.52;1702649;83;21590;-65
2021/04/02 07:31:49;;;;;;;27.15;21.25;;;;;;;10.93;89.53;98651.86;1702761;84;21569;-65
2021/04/02 07:34:17;;;;;;;23.55;17.95;;;;;;;10.88;90.23;98654.61;1706510;82;21223;-65
2021/04/02 07:36:48;;;;;;;21.95;18.50;;;;;;;10.89;90.50;98662.10;1689480;82;21630;-69
2021/04/02 07:39:20;;;;;;;19.10;16.45;;;;;;;10.80;90.67;98671.30;1697514;82;21652;-65
2021/04/02 07:44:44;;;;;;;13.70;11.22;;;;;;;10.72;90.34;98675.91;1889283;76;22585;-66
2021/04/02 07:47:12;;;;;;;13.80;10.68;;;;;;;10.50;90.84;98673.56;1860283;77;20994;-65
2021/04/02 07:49:54;;;;;;;12.50;10.05;;;;;;;10.35;91.33;98688.95;1852178;77;21352;-65
2021/04/02 07:52:39;;;;;;;13.83;10.23;;;;;;;10.20;90.78;98698.37;1821206;76;21551;-66
2021/04/02 07:55:16;;;;;;;19.37;11.12;;;;;;;10.05;90.28;98691.92;1817411;78;21610;-64
2021/04/02 07:58:02;;;;;;;19.00;10.93;;;;;;;9.92;90.22;98699.20;1817899;78;21587;-67
2021/04/02 08:00:33;;;;;;;9.60;7.50;;;;;;;9.72;89.87;98712.62;1817389;78;21046;-64
2021/04/02 08:03:14;;;;;;;13.83;10.65;;;;;;;9.54;90.03;98711.23;1820976;78;21377;-66
2021/04/02 08:06:08;;;;;;;13.80;8.88;;;;;;;9.46;90.36;98706.41;1818567;78;20991;-66
2021/04/02 08:08:48;;;;;;;11.10;8.65;;;;;;;9.32;90.49;98709.88;1818710;78;20995;-65
2021/04/02 08:11:26;;;;;;;11.48;9.58;;;;;;;9.19;90.70;98738.83;1816311;78;21578;-67
2021/04/02 08:14:08;;;;;;;13.28;9.18;;;;;;;9.06;90.82;98721.09;1809998;78;20995;-63
2021/04/02 08:16:48;;;;;;;17.32;9.80;;;;;;;8.84;91.78;98729.31;1817119;78;21434;-69
2021/04/02 08:19:30;;;;;;;11.48;8.30;;;;;;;8.81;91.70;98734.39;1815329;78;21013;-66
2021/04/02 08:22:07;;;;;;;13.22;9.38;;;;;;;8.73;92.45;98735.69;1818574;78;20971;-69
2021/04/02 08:24:38;;;;;;;9.65;6.85;;;;;;;8.65;92.77;98748.25;1798698;78;21194;-65
2021/04/02 08:27:07;;;;;;;11.20;8.38;;;;;;;8.60;92.60;98753.05;1787475;80;21142;-63
2021/04/02 08:29:35;;;;;;;9.50;8.53;;;;;;;8.54;92.04;98748.72;1787567;80;22281;-65
2021/04/02 08:32:09;;;;;;;8.40;6.67;;;;;;;8.47;91.72;98750.84;1798872;78;21030;-65
2021/04/02 08:34:38;;;;;;;11.28;7.90;;;;;;;8.43;91.46;98742.23;1826371;78;21136;-66
2021/04/02 08:37:08;;;;;;;8.63;6.75;;;;;;;8.36;91.49;98748.34;1826837;78;20967;-64
2021/04/02 08:39:36;;;;;;;8.65;6.12;;;;;;;8.31;91.58;98755.29;1826451;78;21633;-65
2021/04/02 08:42:07;;;;;;;7.17;5.00;;;;;;;8.26;91.02;98742.36;1817280;78;21377;-65
2021/04/02 08:44:40;;;;;;;7.95;6.35;;;;;;;8.11;90.53;98754.30;1821275;78;21623;-66
2021/04/02 08:47:13;;;;;;;5.65;4.92;;;;;;;7.96;90.53;98782.31;1799529;79;21591;-66
2021/04/02 08:49:49;;;;;;;5.20;4.58;;;;;;;7.82;90.24;98756.47;1799608;79;21123;-66
2021/04/02 08:52:23;;;;;;;8.63;5.50;;;;;;;7.74;90.30;98759.09;1799622;79;21105;-67
2021/04/02 08:54:55;;;;;;;6.42;4.45;;;;;;;7.66;90.46;98757.41;1802888;78;21368;-65
2021/04/02 08:57:27;;;;;;;4.85;4.40;;;;;;;7.57;90.77;98770.98;1822687;78;21121;-67
2021/04/02 08:59:55;;;;;;;4.95;4.20;;;;;;;7.51;91.00;98775.98;1822336;78;21169;-66
2021/04/02 09:02:26;;;;;;;4.62;4.05;;;;;;;7.39;91.29;98767.57;1822860;78;21583;-67
2021/04/02 09:04:54;;;;;;;4.70;3.22;;;;;;;7.30;91.68;98771.76;1822484;78;21614;-67
2021/04/02 09:07:22;;;;;;;3.45;3.12;;;;;;;7.18;92.65;98774.30;1820795;78;21188;-67
2021/04/02 09:09:50;;;;;;;3.67;3.33;;;;;;;7.01;93.51;98765.00;1820870;78;21018;-66
2021/04/02 09:12:20;;;;;;;5.50;3.75;;;;;;;6.96;94.24;98769.76;1820790;78;21144;-66
2021/04/02 09:14:50;;;;;;;6.03;4.95;;;;;;;6.91;94.91;98767.55;1822007;78;21177;-66
2021/04/02 09:17:24;;;;;;;5.83;3.62;;;;;;;6.81;95.30;98764.22;1823272;78;21628;-65
2021/04/02 09:19:53;;;;;;;3.20;2.90;;;;;;;6.74;95.73;98773.48;1824335;78;22098;-65
2021/04/02 09:22:22;;;;;;;2.90;2.62;;;;;;;6.77;96.17;98774.31;1832080;78;21040;-64
2021/04/02 09:24:51;;;;;;;6.35;2.00;;;;;;;6.78;95.80;98783.43;1817268;78;21176;-66
2021/04/02 09:27:22;;;;;;;2.27;2.08;;;;;;;6.83;95.84;98770.66;1808543;78;21168;-65
2021/04/02 09:29:55;;;;;;;2.60;2.40;;;;;;;6.78;95.35;98774.60;1826458;78;21173;-66
2021/04/02 09:32:27;;;;;;;2.17;1.90;;;;;;;6.73;94.94;98779.35;1822554;78;21406;-63
2021/04/02 09:34:57;;;;;;;1.95;1.75;;;;;;;6.70;94.86;98789.73;1822688;78;21070;-65
2021/04/02 09:37:28;;;;;;;1.55;1.45;;;;;;;6.70;94.87;98797.75;1822579;78;21193;-67
2021/04/02 09:40:08;;;;;;;1.60;1.50;;;;;;;6.65;95.04;98798.48;1794027;78;21002;-65
2021/04/02 09:42:36;;;;;;;1.62;1.52;;;;;;;6.64;94.69;98790.19;1822596;78;21543;-66
2021/04/02 09:45:08;;;;;;;1.57;1.42;;;;;;;6.52;93.76;98790.28;1820480;76;22322;-65
2021/04/02 09:47:48;;;;;;;1.25;1.20;;;;;;;6.48;93.65;98801.70;1836407;76;21173;-66
2021/04/02 09:50:17;;;;;;;1.42;1.32;;;;;;;6.46;93.55;98801.15;1805976;78;21121;-68
2021/04/02 09:52:45;;;;;;;1.27;1.15;;;;;;;6.42;93.34;98788.82;1791018;78;21149;-65
2021/04/02 09:55:14;;;;;;;1.72;1.32;;;;;;;6.39;93.39;98802.64;1807705;79;21571;-62
2021/04/02 09:57:42;;;;;;;2.00;1.80;;;;;;;6.36;93.23;98798.33;1782048;80;22011;-64
2021/04/02 10:00:12;;;;;;;1.72;1.62;;;;;;;6.31;93.21;98797.72;1774687;80;21600;-63
2021/04/02 10:02:43;;;;;;;1.90;1.60;;;;;;;6.23;92.94;98796.81;1755815;81;21059;-65
2021/04/02 10:05:13;;;;;;;3.45;1.72;;;;;;;6.23;93.34;98805.34;1756270;80;21598;-64
2021/04/02 10:07:41;;;;;;;2.02;1.82;;;;;;;6.22;93.50;98807.72;1786542;79;21217;-65
2021/04/02 10:10:11;;;;;;;1.25;1.25;;;;;;;6.14;93.53;98813.73;1758337;80;21350;-64
2021/04/02 10:12:39;;;;;;;2.72;2.12;;;;;;;6.07;93.85;98805.61;1817936;78;21058;-64
2021/04/02 10:15:08;;;;;;;1.45;1.35;;;;;;;6.00;94.07;98812.44;1823167;78;21178;-63
2021/04/02 10:17:37;;;;;;;1.22;1.12;;;;;;;5.99;94.38;98813.51;1795026;79;21130;-64
2021/04/02 10:20:09;;;;;;;1.80;1.70;;;;;;;6.00;94.64;98810.28;1798472;78;21150;-64
2021/04/02 10:22:38;;;;;;;1.30;1.17;;;;;;;6.00;94.59;98797.75;1795091;80;22300;-64
2021/04/02 10:25:07;;;;;;;3.98;2.87;;;;;;;6.04;94.88;98812.78;1764395;79;21205;-63
2021/04/02 10:27:35;;;;;;;1.12;1.02;;;;;;;5.97;94.41;98800.92;1772985;81;22189;-64
2021/04/02 10:30:05;;;;;;;2.15;1.67;;;;;;;5.97;94.50;98801.44;1772884;81;21706;-65
2021/04/02 10:32:34;;;;;;;1.32;1.22;;;;;;;5.97;94.75;98800.11;1786343;80;21259;-64
2021/04/02 10:35:03;;;;;;;1.50;1.40;;;;;;;5.92;94.54;98799.50;1772481;80;21363;-64
2021/04/02 10:37:31;;;;;;;1.12;1.07;;;;;;;5.92;94.97;98801.36;1759825;80;21168;-64
2021/04/02 10:40:00;;;;;;;0.60;0.60;;;;;;;5.88;94.78;98798.89;1770657;80;20978;-64
2021/04/02 10:42:28;;;;;;;1.25;0.95;;;;;;;5.79;94.45;98802.97;1770371;81;21006;-67
2021/04/02 10:44:56;;;;;;;0.88;0.80;;;;;;;5.76;94.72;98812.25;1770634;81;21117;-67
2021/04/02 10:47:24;;;;;;;1.00;1.00;;;;;;;5.76;94.86;98813.58;1780639;80;21874;-67
2021/04/02 10:49:52;;;;;;;1.40;1.17;;;;;;;5.79;95.10;98806.45;1761601;81;21169;-70
2021/04/02 10:52:21;;;;;;;0.95;0.93;;;;;;;5.78;94.84;98819.50;1761787;81;21575;-68
2021/04/02 10:54:50;;;;;;;1.22;1.00;;;;;;;5.77;94.98;98827.22;1744130;81;21555;-68
2021/04/02 10:57:19;;;;;;;2.50;2.05;;;;;;;5.77;94.98;98827.22;1744698;82;21154;-67
2021/04/02 10:59:47;;;;;;;1.02;1.02;;;;;;;5.78;95.17;98819.50;1748548;81;21422;-68
2021/04/02 11:02:15;;;;;;;1.65;1.55;;;;;;;5.81;95.21;98823.02;1750767;81;21006;-66
2021/04/02 11:04:43;;;;;;;2.62;2.42;;;;;;;5.77;95.17;98799.72;1759929;81;21150;-68
2021/04/02 11:07:14;;;;;;;8.95;5.45;;;;;;;5.77;95.11;98813.88;1757456;81;21014;-65
2021/04/02 11:09:43;;;;;;;4.50;3.50;;;;;;;5.79;95.25;98813.13;1759960;81;21144;-62
2021/04/02 11:12:11;;;;;;;2.95;1.70;;;;;;;5.81;95.25;98829.68;1750228;81;21354;-66
2021/04/02 11:14:40;;;;;;;1.50;1.40;;;;;;;5.64;94.47;98831.52;1759432;81;21126;-66
2021/04/02 11:17:09;;;;;;;0.93;0.93;;;;;;;5.64;94.47;98831.52;1760700;81;21096;-66
2021/04/02 11:19:37;;;;;;;2.47;1.10;;;;;;;5.64;94.73;98827.00;1759899;81;21063;-68
2021/04/02 11:22:05;;;;;;;0.85;0.85;;;;;;;5.63;94.73;98830.70;1760692;81;21594;-67
2021/04/02 11:24:32;;;;;;;1.87;1.05;;;;;;;5.60;94.58;98827.72;1762213;81;22032;-67
2021/04/02 11:27:01;;;;;;;1.20;1.10;;;;;;;5.45;94.02;98859.42;1754507;81;21650;-67
2021/04/02 11:29:29;;;;;;;1.20;1.10;;;;;;;5.46;94.24;98831.71;1761691;81;21134;-69
2021/04/02 11:31:58;;;;;;;1.65;1.40;;;;;;;5.43;94.49;98827.65;1750862;80;21202;-71
2021/04/02 11:34:26;;;;;;;1.75;1.57;;;;;;;5.43;94.69;98834.84;1752637;80;21108;-64
2021/04/02 11:36:54;;;;;;;1.30;1.20;;;;;;;5.49;94.93;98839.23;1749697;82;21210;-65
2021/04/02 11:39:24;;;;;;;1.52;1.37;;;;;;;5.54;95.15;98836.66;1749584;82;21139;-65
2021/04/02 11:41:52;;;;;;;2.37;1.92;;;;;;;5.57;95.19;98852.17;1760619;81;21112;-65
2021/04/02 11:44:20;;;;;;;3.62;1.50;;;;;;;5.59;95.19;98839.42;1757022;81;21109;-66